createdAt,value
2019-01-28T00:03:35.362Z,75.50
2019-01-28T00:15:19.773Z,75.70
2019-01-28T00:27:04.962Z,75.90
2019-01-28T00:38:49.295Z,76.60
2019-01-28T00:50:33.617Z,77.10
2019-01-28T01:02:17.951Z,77.00
2019-01-28T01:14:02.228Z,76.30
2019-01-28T01:25:46.650Z,76.10
2019-01-28T01:37:31.671Z,75.90
2019-01-28T01:49:15.943Z,75.70
2019-01-28T02:01:00.257Z,75.40
2019-01-28T02:12:44.527Z,75.70
2019-01-28T02:24:28.812Z,76.00
2019-01-28T02:36:13.159Z,76.40
2019-01-28T02:47:58.192Z,75.40
2019-01-28T02:59:42.465Z,74.50
2019-01-28T03:11:27.728Z,75.10
2019-01-28T03:23:12.381Z,77.90
2019-01-28T03:34:56.720Z,79.10
2019-01-28T03:46:40.996Z,80.20
2019-01-28T03:58:26.028Z,81.50
2019-01-28T04:10:18.515Z,78.90
2019-01-28T04:22:03.971Z,79.40
2019-01-28T04:33:48.313Z,79.80
2019-01-28T04:45:32.663Z,80.20
2019-01-28T04:57:16.945Z,81.60
2019-01-28T05:09:02.080Z,82.70
2019-01-28T05:20:47.985Z,84.20
2019-01-28T05:32:32.336Z,84.30
2019-01-28T05:44:16.622Z,84.20
2019-01-28T05:56:00.972Z,85.70
2019-01-28T06:07:45.400Z,88.60
2019-01-28T06:19:30.525Z,90.60
2019-01-28T06:31:14.879Z,91.90
2019-01-28T06:42:59.199Z,92.60
2019-01-28T06:54:43.541Z,93.30
2019-01-28T07:06:27.806Z,93.90
2019-01-28T07:18:12.148Z,94.50
2019-01-28T07:29:57.268Z,94.30
2019-01-28T07:41:41.633Z,94.50
2019-01-28T07:53:25.991Z,94.70
2019-01-28T08:05:12.049Z,94.70
2019-01-28T08:16:57.363Z,94.70
2019-01-28T08:28:41.671Z,94.70
2019-01-28T08:40:31.193Z,94.50
2019-01-28T08:52:17.100Z,94.80
2019-01-28T09:04:01.424Z,94.10
2019-01-28T09:15:45.675Z,94.10
2019-01-28T09:27:29.955Z,94.40
2019-01-28T09:39:14.323Z,94.40
2019-01-28T09:50:59.333Z,93.90
2019-01-28T10:02:43.639Z,93.40
2019-01-28T10:14:27.956Z,93.80
2019-01-28T10:26:12.219Z,94.10
2019-01-28T10:37:56.522Z,93.30
2019-01-28T10:49:40.939Z,92.90
2019-01-28T11:01:26.063Z,93.10
2019-01-28T11:13:10.404Z,92.50
2019-01-28T11:24:54.791Z,92.10
2019-01-28T11:36:39.210Z,93.10
2019-01-28T11:48:23.735Z,93.30
2019-01-28T12:00:11.408Z,93.20
2019-01-28T12:11:56.548Z,93.40
2019-01-28T12:23:40.916Z,94.40
2019-01-28T12:35:26.188Z,94.60
2019-01-28T12:47:10.461Z,94.80
2019-01-28T12:58:54.802Z,95.20
2019-01-28T13:10:39.204Z,95.40
2019-01-28T13:22:24.317Z,95.60
2019-01-28T13:34:08.686Z,95.80
2019-01-28T13:45:52.995Z,95.60
2019-01-28T13:57:37.296Z,96.10
2019-01-28T14:09:21.558Z,95.80
2019-01-28T14:21:05.911Z,95.70
2019-01-28T14:32:51.004Z,95.80
2019-01-28T14:44:35.320Z,96.00
2019-01-28T14:56:19.569Z,96.60
2019-01-28T15:08:04.163Z,96.40
2019-01-28T15:19:50.777Z,96.10
2019-01-28T15:31:34.525Z,95.90
2019-01-28T15:43:19.632Z,96.00
2019-01-28T15:55:05.981Z,96.00
2019-01-28T16:06:50.266Z,95.90
2019-01-28T16:18:34.948Z,95.90
2019-01-28T16:30:26.393Z,95.70
2019-01-28T16:42:08.363Z,95.60
2019-01-28T16:53:53.400Z,95.50
2019-01-28T17:05:37.716Z,95.60
2019-01-28T17:17:22.048Z,95.40
2019-01-28T17:29:06.341Z,95.50
2019-01-28T17:40:50.672Z,95.90
2019-01-28T17:52:34.948Z,96.20
2019-01-28T18:04:20.123Z,96.40
2019-01-28T18:16:04.646Z,96.60
2019-01-28T18:27:49.050Z,96.60
2019-01-28T18:39:33.347Z,96.70
2019-01-28T18:51:17.624Z,96.70
2019-01-28T19:03:05.089Z,96.70
2019-01-28T19:14:56.992Z,96.70
2019-01-28T19:26:42.622Z,96.70
2019-01-28T19:38:26.948Z,97.00
2019-01-28T19:50:17.232Z,97.00
2019-01-28T20:02:01.735Z,97.00
2019-01-28T20:13:46.180Z,96.70
2019-01-28T20:25:31.349Z,96.50
2019-01-28T20:37:16.684Z,95.90
2019-01-28T20:49:01.094Z,95.00
2019-01-28T21:00:45.437Z,94.50
2019-01-28T21:12:29.855Z,94.20
2019-01-28T21:24:14.260Z,94.20
2019-01-28T21:36:09.719Z,93.40
2019-01-28T21:47:54.080Z,92.90
2019-01-28T21:59:39.792Z,93.00
2019-01-28T22:11:24.044Z,92.00
2019-01-28T22:23:08.357Z,91.60
2019-01-28T22:34:52.660Z,91.10
2019-01-28T22:46:37.768Z,90.60
2019-01-28T22:58:22.292Z,89.10
2019-01-28T23:10:07.312Z,88.60
2019-01-28T23:21:51.840Z,88.80
2019-01-28T23:33:36.364Z,88.90
2019-01-28T23:45:20.904Z,89.00
2019-01-28T23:57:06.148Z,89.60
